createdAt,value
2018-06-30T00:00:53.701Z,17.60
2018-06-30T00:02:57.384Z,17.50
2018-06-30T00:05:01.017Z,17.50
2018-06-30T00:07:05.667Z,17.50
2018-06-30T00:09:09.766Z,17.50
2018-06-30T00:11:13.423Z,17.50
2018-06-30T00:13:16.965Z,17.50
2018-06-30T00:15:20.493Z,17.50
2018-06-30T00:17:24.133Z,17.60
2018-06-30T00:19:27.728Z,17.50
2018-06-30T00:21:31.305Z,17.50
2018-06-30T00:23:34.924Z,17.50
2018-06-30T00:25:38.471Z,17.40
2018-06-30T00:27:41.978Z,17.40
2018-06-30T00:29:45.522Z,17.40
2018-06-30T00:31:49.050Z,17.50
2018-06-30T00:33:52.540Z,17.50
2018-06-30T00:35:56.096Z,17.50
2018-06-30T00:37:59.637Z,17.50
2018-06-30T00:40:03.315Z,17.50
2018-06-30T00:42:06.853Z,17.50
2018-06-30T00:44:10.471Z,17.40
2018-06-30T00:46:14.033Z,17.40
2018-06-30T00:48:17.672Z,17.40
2018-06-30T00:50:21.184Z,17.30
2018-06-30T00:52:24.699Z,17.30
2018-06-30T00:54:28.212Z,17.30
2018-06-30T00:56:31.754Z,17.30
2018-06-30T00:58:35.396Z,17.30
2018-06-30T01:00:40.104Z,17.30
2018-06-30T01:02:43.685Z,17.30
2018-06-30T01:06:50.423Z,17.30
2018-06-30T01:08:54.053Z,17.30
2018-06-30T01:10:57.672Z,17.30
2018-06-30T01:15:04.560Z,17.30
2018-06-30T01:19:11.452Z,17.20
2018-06-30T01:21:14.943Z,17.20
2018-06-30T01:23:18.483Z,17.20
2018-06-30T01:25:21.959Z,17.10
2018-06-30T01:27:25.476Z,17.10
2018-06-30T01:29:28.955Z,17.00
2018-06-30T01:31:32.504Z,16.90
2018-06-30T01:33:36.441Z,16.90
2018-06-30T01:35:39.913Z,16.80
2018-06-30T01:37:43.448Z,16.70
2018-06-30T01:39:48.986Z,16.60
2018-06-30T01:41:52.874Z,16.60
2018-06-30T01:43:56.466Z,16.50
2018-06-30T01:48:03.423Z,16.50
2018-06-30T01:50:06.951Z,16.50
2018-06-30T01:52:10.483Z,16.50
2018-06-30T01:54:14.079Z,16.50
2018-06-30T01:56:17.667Z,16.60
2018-06-30T01:58:21.180Z,16.60
2018-06-30T02:00:24.727Z,16.50
2018-06-30T02:04:31.434Z,16.50
2018-06-30T02:06:35.065Z,16.50
2018-06-30T02:08:38.602Z,16.40
2018-06-30T02:10:42.200Z,16.40
2018-06-30T02:12:45.756Z,16.40
2018-06-30T02:14:49.427Z,16.30
2018-06-30T02:16:53.012Z,16.30
2018-06-30T02:18:56.539Z,16.30
2018-06-30T02:21:00.160Z,16.40
2018-06-30T02:23:03.682Z,16.30
2018-06-30T02:25:07.231Z,16.30
2018-06-30T02:27:10.803Z,16.20
2018-06-30T02:29:14.363Z,16.10
2018-06-30T02:31:17.891Z,16.10
2018-06-30T02:33:21.420Z,16.20
2018-06-30T02:35:24.951Z,16.20
2018-06-30T02:37:28.503Z,16.30
2018-06-30T02:39:32.034Z,16.30
2018-06-30T02:41:36.037Z,16.40
2018-06-30T02:43:39.735Z,16.50
2018-06-30T02:45:43.325Z,16.50
2018-06-30T02:47:46.851Z,16.50
2018-06-30T02:51:53.584Z,16.50
2018-06-30T02:53:57.188Z,16.40
2018-06-30T02:56:00.707Z,16.40
2018-06-30T02:58:04.344Z,16.40
2018-06-30T03:00:11.018Z,16.30
2018-06-30T03:02:14.604Z,16.10
2018-06-30T03:04:18.324Z,15.90
2018-06-30T03:06:21.839Z,15.80
2018-06-30T03:08:25.363Z,15.80
2018-06-30T03:10:28.910Z,15.80
2018-06-30T03:12:32.502Z,15.70
2018-06-30T03:14:36.016Z,15.60
2018-06-30T03:16:39.625Z,15.50
2018-06-30T03:18:43.124Z,15.50
2018-06-30T03:20:46.637Z,15.50
2018-06-30T03:22:50.099Z,15.50
2018-06-30T03:24:53.593Z,15.50
2018-06-30T03:26:57.223Z,15.50
2018-06-30T03:29:00.799Z,15.60
2018-06-30T03:31:04.345Z,15.50
2018-06-30T03:33:07.886Z,15.60
2018-06-30T03:35:11.405Z,15.60
2018-06-30T03:37:14.976Z,15.60
2018-06-30T03:39:18.563Z,15.60
2018-06-30T03:41:22.244Z,15.60
2018-06-30T03:43:25.782Z,15.60
2018-06-30T03:45:30.269Z,15.60
2018-06-30T03:47:33.878Z,15.60
2018-06-30T03:49:37.464Z,15.60
2018-06-30T03:51:41.061Z,15.60
2018-06-30T03:53:45.296Z,15.70
2018-06-30T03:55:48.826Z,15.70
2018-06-30T03:57:52.439Z,15.60
2018-06-30T03:59:56.064Z,15.70
2018-06-30T04:01:59.554Z,15.60
2018-06-30T04:04:03.114Z,15.60
2018-06-30T04:06:07.256Z,15.50
2018-06-30T04:10:14.107Z,15.60
2018-06-30T04:12:17.612Z,15.50
2018-06-30T04:14:21.146Z,15.50
2018-06-30T04:18:27.852Z,15.50
2018-06-30T04:20:31.451Z,15.50
2018-06-30T04:22:35.003Z,15.50
2018-06-30T04:24:38.567Z,15.60
2018-06-30T04:26:43.111Z,15.60
2018-06-30T04:28:46.624Z,15.60
2018-06-30T04:30:50.178Z,15.70
2018-06-30T04:32:53.686Z,15.70
2018-06-30T04:34:57.251Z,15.80
2018-06-30T04:37:00.738Z,15.80
2018-06-30T04:39:06.272Z,15.90
2018-06-30T04:41:09.811Z,16.00
2018-06-30T04:43:13.367Z,16.00
2018-06-30T04:45:16.887Z,16.00
2018-06-30T04:47:20.384Z,16.00
2018-06-30T04:49:24.005Z,16.00
2018-06-30T04:51:27.569Z,16.00
2018-06-30T04:53:31.070Z,16.00
2018-06-30T04:55:34.649Z,16.00
2018-06-30T04:57:38.304Z,16.00
2018-06-30T04:59:41.805Z,16.10
2018-06-30T05:01:45.444Z,16.20
2018-06-30T05:03:49.055Z,16.30
2018-06-30T05:05:52.622Z,16.40
2018-06-30T05:07:56.160Z,16.40
2018-06-30T05:09:59.786Z,16.40
2018-06-30T05:12:03.380Z,16.50
2018-06-30T05:14:07.100Z,16.60
2018-06-30T05:16:10.741Z,16.60
2018-06-30T05:18:14.388Z,16.70
2018-06-30T05:20:17.951Z,16.80
2018-06-30T05:22:21.451Z,16.80
2018-06-30T05:24:25.128Z,16.90
2018-06-30T05:26:28.656Z,17.00
2018-06-30T05:28:32.115Z,17.10
2018-06-30T05:30:35.766Z,17.20
2018-06-30T05:32:39.282Z,17.30
2018-06-30T05:34:42.834Z,17.40
2018-06-30T05:36:46.371Z,17.40
2018-06-30T05:38:49.881Z,17.50
2018-06-30T05:40:53.443Z,17.60
2018-06-30T05:42:57.236Z,17.70
2018-06-30T05:45:00.772Z,17.80
2018-06-30T05:47:04.295Z,17.90
2018-06-30T05:49:07.851Z,17.90
2018-06-30T05:51:11.368Z,18.00
2018-06-30T05:53:14.962Z,18.10
2018-06-30T05:55:18.508Z,18.10
2018-06-30T05:57:22.058Z,18.20
2018-06-30T05:59:25.607Z,18.40
2018-06-30T06:01:29.394Z,18.30
2018-06-30T06:03:32.932Z,18.40
2018-06-30T06:05:37.383Z,18.40
2018-06-30T06:07:41.003Z,18.60
2018-06-30T06:09:44.562Z,18.60
2018-06-30T06:11:48.264Z,18.70
2018-06-30T06:13:51.812Z,18.80
2018-06-30T06:15:55.396Z,18.80
2018-06-30T06:17:58.963Z,18.90
2018-06-30T06:20:02.517Z,19.00
2018-06-30T06:22:06.093Z,19.10
2018-06-30T06:24:09.620Z,19.10
2018-06-30T06:26:13.161Z,19.30
2018-06-30T06:28:16.667Z,19.40
2018-06-30T06:30:26.692Z,19.50
2018-06-30T06:32:30.250Z,19.70
2018-06-30T06:34:34.072Z,19.80
2018-06-30T06:36:37.594Z,19.90
2018-06-30T06:38:41.062Z,19.90
2018-06-30T06:40:44.763Z,20.00
2018-06-30T06:42:49.161Z,20.00
2018-06-30T06:44:52.752Z,20.10
2018-06-30T06:46:56.416Z,20.10
2018-06-30T06:48:59.937Z,20.20
2018-06-30T06:51:03.543Z,20.30
2018-06-30T06:53:07.488Z,20.40
2018-06-30T06:55:11.006Z,20.50
2018-06-30T06:57:14.644Z,20.50
2018-06-30T06:59:18.160Z,20.60
2018-06-30T07:01:21.832Z,20.60
2018-06-30T07:03:25.374Z,20.70
2018-06-30T07:05:28.936Z,20.70
2018-06-30T07:07:32.448Z,20.70
2018-06-30T07:11:40.257Z,20.90
2018-06-30T07:13:43.775Z,21.00
2018-06-30T07:15:47.325Z,21.00
2018-06-30T07:17:50.804Z,21.20
2018-06-30T07:19:54.352Z,21.30
2018-06-30T07:21:57.968Z,21.30
2018-06-30T07:24:01.807Z,21.40
2018-06-30T07:26:05.116Z,21.50
2018-06-30T07:28:08.765Z,21.50
2018-06-30T07:30:12.282Z,21.50
2018-06-30T07:32:15.947Z,21.60
2018-06-30T07:34:19.532Z,21.60
2018-06-30T07:36:23.258Z,21.70
2018-06-30T07:38:26.764Z,21.80
2018-06-30T07:40:30.323Z,21.90
2018-06-30T07:42:33.790Z,22.00
2018-06-30T07:44:37.276Z,22.10
2018-06-30T07:46:40.922Z,22.30
2018-06-30T07:48:44.411Z,22.30
2018-06-30T07:50:47.908Z,22.30
2018-06-30T07:52:51.449Z,22.20
2018-06-30T07:54:55.071Z,22.30
2018-06-30T07:56:58.750Z,22.40
2018-06-30T07:59:02.337Z,22.40
2018-06-30T08:01:05.926Z,22.40
2018-06-30T08:03:09.733Z,22.50
2018-06-30T08:05:13.096Z,22.50
2018-06-30T08:07:16.996Z,22.40
2018-06-30T08:09:20.462Z,22.50
2018-06-30T08:11:24.007Z,22.60
2018-06-30T08:13:27.515Z,22.50
2018-06-30T08:15:31.049Z,22.50
2018-06-30T08:17:34.659Z,22.50
2018-06-30T08:19:38.243Z,22.60
2018-06-30T08:21:41.801Z,22.60
2018-06-30T08:23:45.304Z,22.70
2018-06-30T08:25:48.900Z,22.80
2018-06-30T08:27:52.574Z,22.80
2018-06-30T08:29:56.142Z,22.80
2018-06-30T08:31:59.695Z,22.80
2018-06-30T08:34:03.215Z,22.90
2018-06-30T08:36:06.759Z,22.90
2018-06-30T08:38:10.352Z,22.90
2018-06-30T08:40:13.872Z,22.90
2018-06-30T08:42:17.403Z,22.90
2018-06-30T08:44:20.958Z,22.90
2018-06-30T08:46:24.443Z,23.00
2018-06-30T08:48:28.283Z,23.10
2018-06-30T08:50:31.823Z,23.10
2018-06-30T08:52:35.447Z,23.10
2018-06-30T08:54:38.972Z,23.20
2018-06-30T08:56:42.486Z,23.30
2018-06-30T08:58:46.410Z,23.30
2018-06-30T09:00:50.045Z,23.30
2018-06-30T09:02:53.631Z,23.40
2018-06-30T09:04:57.171Z,23.40
2018-06-30T09:07:00.781Z,23.50
2018-06-30T09:09:06.511Z,23.50
2018-06-30T09:11:10.227Z,23.50
2018-06-30T09:13:13.744Z,23.60
2018-06-30T09:17:20.461Z,23.80
2018-06-30T09:19:23.962Z,23.70
2018-06-30T09:21:27.531Z,23.70
2018-06-30T09:23:31.090Z,23.70
2018-06-30T09:25:34.576Z,23.70
2018-06-30T09:27:38.217Z,23.80
2018-06-30T09:29:41.720Z,23.90
2018-06-30T09:31:45.219Z,23.90
2018-06-30T09:33:48.808Z,23.90
2018-06-30T09:35:52.396Z,24.00
2018-06-30T09:37:55.961Z,24.00
2018-06-30T09:39:59.424Z,23.90
2018-06-30T09:42:02.962Z,23.90
2018-06-30T09:44:07.118Z,24.00
2018-06-30T09:46:10.644Z,23.90
2018-06-30T09:48:14.186Z,24.00
2018-06-30T09:50:17.739Z,24.10
2018-06-30T09:52:21.305Z,24.50
2018-06-30T09:54:24.896Z,24.60
2018-06-30T09:56:28.483Z,24.40
2018-06-30T09:58:31.981Z,24.30
2018-06-30T10:00:38.431Z,24.40
2018-06-30T10:02:41.983Z,24.40
2018-06-30T10:04:45.529Z,24.40
2018-06-30T10:06:49.053Z,24.40
2018-06-30T10:08:52.568Z,24.40
2018-06-30T10:10:56.107Z,24.30
2018-06-30T10:12:59.653Z,24.30
2018-06-30T10:15:03.159Z,24.50
2018-06-30T10:17:06.673Z,24.60
2018-06-30T10:19:10.286Z,24.60
2018-06-30T10:21:13.799Z,24.70
2018-06-30T10:23:17.280Z,24.60
2018-06-30T10:25:20.817Z,24.60
2018-06-30T10:27:24.319Z,24.50
2018-06-30T10:29:27.861Z,24.50
2018-06-30T10:31:31.336Z,24.60
2018-06-30T10:33:34.970Z,24.60
2018-06-30T10:35:38.808Z,24.60
2018-06-30T10:37:42.382Z,24.60
2018-06-30T10:39:45.863Z,24.50
2018-06-30T10:41:49.415Z,24.40
2018-06-30T10:43:52.927Z,24.40
2018-06-30T10:45:56.487Z,24.40
2018-06-30T10:48:00.060Z,24.30
2018-06-30T10:50:03.802Z,24.40
2018-06-30T10:52:07.452Z,24.40
2018-06-30T10:54:10.965Z,24.40
2018-06-30T10:56:14.552Z,24.40
2018-06-30T10:58:18.179Z,24.50
2018-06-30T11:00:21.959Z,24.60
2018-06-30T11:02:25.438Z,24.70
2018-06-30T11:04:28.985Z,24.70
2018-06-30T11:06:32.580Z,24.80
2018-06-30T11:08:36.116Z,24.60
2018-06-30T11:10:39.744Z,24.60
2018-06-30T11:12:43.291Z,24.60
2018-06-30T11:14:46.743Z,24.70
2018-06-30T11:16:50.279Z,24.60
2018-06-30T11:18:53.852Z,24.70
2018-06-30T11:20:57.407Z,24.80
2018-06-30T11:23:00.928Z,24.80
2018-06-30T11:25:04.593Z,24.90
2018-06-30T11:27:08.114Z,25.00
2018-06-30T11:29:11.639Z,25.00
2018-06-30T11:31:15.257Z,25.10
2018-06-30T11:33:18.871Z,25.10
2018-06-30T11:35:22.408Z,25.10
2018-06-30T11:37:25.924Z,25.20
2018-06-30T11:39:29.487Z,25.30
2018-06-30T11:41:32.983Z,25.20
2018-06-30T11:45:39.783Z,25.20
2018-06-30T11:47:43.368Z,25.20
2018-06-30T11:49:46.848Z,25.20
2018-06-30T11:51:50.380Z,25.30
2018-06-30T11:53:53.902Z,25.30
2018-06-30T11:55:57.456Z,25.50
2018-06-30T11:58:00.940Z,25.50
2018-06-30T12:00:05.109Z,25.50
2018-06-30T12:02:09.035Z,25.30
2018-06-30T12:04:12.865Z,25.30
2018-06-30T12:06:16.447Z,25.40
2018-06-30T12:08:19.984Z,25.40
2018-06-30T12:10:23.522Z,25.40
2018-06-30T12:12:27.021Z,25.60
2018-06-30T12:14:30.574Z,25.60
2018-06-30T12:16:34.091Z,25.80
2018-06-30T12:18:37.726Z,25.70
2018-06-30T12:20:41.275Z,25.70
2018-06-30T12:22:44.764Z,25.80
2018-06-30T12:24:48.331Z,25.80
2018-06-30T12:26:51.850Z,25.80
2018-06-30T12:28:55.457Z,25.80
2018-06-30T12:30:58.961Z,25.90
2018-06-30T12:33:02.480Z,26.00
2018-06-30T12:35:06.171Z,26.10
2018-06-30T12:37:09.727Z,26.10
2018-06-30T12:39:13.562Z,26.20
2018-06-30T12:41:16.981Z,26.30
2018-06-30T12:43:20.471Z,26.20
2018-06-30T12:45:23.971Z,26.30
2018-06-30T12:47:27.460Z,26.10
2018-06-30T12:49:30.979Z,25.90
2018-06-30T12:53:37.799Z,25.80
2018-06-30T12:55:41.317Z,25.70
2018-06-30T12:57:44.959Z,25.70
2018-06-30T12:59:48.517Z,25.80
2018-06-30T13:01:52.047Z,26.00
2018-06-30T13:03:55.598Z,26.10
2018-06-30T13:05:59.167Z,26.10
2018-06-30T13:08:02.700Z,26.20
2018-06-30T13:10:06.316Z,26.20
2018-06-30T13:12:10.012Z,26.30
2018-06-30T13:14:13.541Z,26.30
2018-06-30T13:16:17.048Z,26.30
2018-06-30T13:18:20.518Z,26.10
2018-06-30T13:20:24.119Z,26.00
2018-06-30T13:22:27.666Z,26.20
2018-06-30T13:24:31.272Z,26.20
2018-06-30T13:26:34.784Z,26.30
2018-06-30T13:28:38.348Z,26.40
2018-06-30T13:30:41.855Z,26.40
2018-06-30T13:32:45.384Z,26.40
2018-06-30T13:34:48.904Z,26.30
2018-06-30T13:36:53.095Z,26.30
2018-06-30T13:38:56.598Z,26.20
2018-06-30T13:41:00.178Z,26.10
2018-06-30T13:43:03.790Z,26.00
2018-06-30T13:45:08.611Z,26.00
2018-06-30T13:47:12.127Z,26.30
2018-06-30T13:49:15.664Z,26.20
2018-06-30T13:51:19.217Z,26.10
2018-06-30T13:53:22.739Z,26.20
2018-06-30T13:55:26.263Z,26.30
2018-06-30T13:57:29.814Z,26.30
2018-06-30T13:59:33.412Z,26.20
2018-06-30T14:01:37.000Z,26.00
2018-06-30T14:03:40.655Z,26.00
2018-06-30T14:05:44.204Z,26.00
2018-06-30T14:07:47.672Z,25.90
2018-06-30T14:09:51.231Z,26.00
2018-06-30T14:11:54.892Z,26.00
2018-06-30T14:13:58.400Z,26.10
2018-06-30T14:16:01.975Z,26.20
2018-06-30T14:18:05.779Z,26.30
2018-06-30T14:22:13.532Z,26.40
2018-06-30T14:24:17.065Z,26.40
2018-06-30T14:26:20.591Z,26.30
2018-06-30T14:28:24.107Z,26.30
2018-06-30T14:30:27.633Z,26.30
2018-06-30T14:32:31.271Z,26.40
2018-06-30T14:36:37.967Z,26.30
2018-06-30T14:38:41.695Z,26.20
2018-06-30T14:40:45.310Z,26.30
2018-06-30T14:42:48.898Z,26.40
2018-06-30T14:44:52.448Z,26.50
2018-06-30T14:48:59.268Z,26.70
2018-06-30T14:51:02.876Z,26.90
2018-06-30T14:53:06.567Z,27.10
2018-06-30T14:55:10.192Z,27.40
2018-06-30T14:57:13.682Z,27.50
2018-06-30T14:59:17.623Z,27.40
2018-06-30T15:01:21.159Z,27.20
2018-06-30T15:03:24.643Z,27.20
2018-06-30T15:05:28.240Z,26.90
2018-06-30T15:07:31.842Z,26.60
2018-06-30T15:09:35.319Z,26.30
2018-06-30T15:11:38.814Z,26.20
2018-06-30T15:13:42.343Z,26.00
2018-06-30T15:15:45.929Z,26.10
2018-06-30T15:17:49.427Z,25.90
2018-06-30T15:19:53.007Z,25.90
2018-06-30T15:21:56.656Z,25.70
2018-06-30T15:24:00.160Z,25.80
2018-06-30T15:26:03.816Z,25.80
2018-06-30T15:28:07.382Z,26.00
2018-06-30T15:30:11.002Z,26.20
2018-06-30T15:32:14.520Z,26.50
2018-06-30T15:34:18.052Z,26.80
2018-06-30T15:36:21.725Z,27.00
2018-06-30T15:38:25.297Z,27.10
2018-06-30T15:40:28.912Z,27.20
2018-06-30T15:42:38.820Z,27.00
2018-06-30T15:44:42.339Z,27.30
2018-06-30T15:46:45.885Z,27.40
2018-06-30T15:48:49.380Z,27.20
2018-06-30T15:52:56.112Z,27.10
2018-06-30T15:54:59.595Z,27.20
2018-06-30T15:57:03.198Z,27.40
2018-06-30T15:59:06.765Z,27.50
2018-06-30T16:01:10.280Z,27.40
2018-06-30T16:03:13.776Z,27.20
2018-06-30T16:05:17.277Z,26.90
2018-06-30T16:07:20.827Z,27.10
2018-06-30T16:09:24.379Z,27.50
2018-06-30T16:11:27.911Z,28.40
2018-06-30T16:13:31.495Z,29.00
2018-06-30T16:15:35.043Z,29.60
2018-06-30T16:17:38.682Z,30.20
2018-06-30T16:19:42.175Z,30.60
2018-06-30T16:21:45.864Z,30.70
2018-06-30T16:23:49.421Z,30.10
2018-06-30T16:25:53.041Z,30.00
2018-06-30T16:27:56.571Z,30.40
2018-06-30T16:30:00.169Z,30.70
2018-06-30T16:32:03.770Z,30.20
2018-06-30T16:34:07.315Z,29.90
2018-06-30T16:36:11.030Z,29.50
2018-06-30T16:38:14.535Z,28.70
2018-06-30T16:40:18.026Z,28.20
2018-06-30T16:42:21.633Z,27.70
2018-06-30T16:44:25.255Z,27.20
2018-06-30T16:46:28.784Z,26.90
2018-06-30T16:48:32.309Z,26.50
2018-06-30T16:50:35.817Z,26.40
2018-06-30T16:52:39.507Z,26.10
2018-06-30T16:54:43.029Z,26.10
2018-06-30T16:56:46.660Z,26.20
2018-06-30T16:58:50.332Z,26.20
2018-06-30T17:00:53.859Z,26.30
2018-06-30T17:02:57.395Z,26.40
2018-06-30T17:05:00.883Z,26.40
2018-06-30T17:07:04.445Z,26.40
2018-06-30T17:09:12.001Z,26.40
2018-06-30T17:11:15.696Z,26.30
2018-06-30T17:13:19.219Z,26.30
2018-06-30T17:15:22.721Z,26.30
2018-06-30T17:17:26.330Z,26.20
2018-06-30T17:19:29.834Z,26.20
2018-06-30T17:21:34.176Z,26.20
2018-06-30T17:23:37.766Z,26.10
2018-06-30T17:25:41.318Z,26.20
2018-06-30T17:27:44.842Z,26.20
2018-06-30T17:29:48.750Z,26.00
2018-06-30T17:31:52.517Z,25.90
2018-06-30T17:33:56.015Z,25.80
2018-06-30T17:35:59.615Z,25.60
2018-06-30T17:38:03.270Z,25.40
2018-06-30T17:40:06.980Z,25.40
2018-06-30T17:42:10.687Z,25.30
2018-06-30T17:44:14.196Z,25.30
2018-06-30T17:46:17.711Z,25.30
2018-06-30T17:48:21.290Z,25.30
2018-06-30T17:50:24.907Z,25.20
2018-06-30T17:52:28.359Z,25.20
2018-06-30T17:54:31.950Z,25.10
2018-06-30T17:56:35.683Z,25.00
2018-06-30T17:58:39.338Z,24.90
2018-06-30T18:00:42.896Z,25.00
2018-06-30T18:02:46.420Z,25.00
2018-06-30T18:04:49.949Z,25.00
2018-06-30T18:06:53.493Z,24.90
2018-06-30T18:08:57.042Z,24.90
2018-06-30T18:11:00.671Z,24.80
2018-06-30T18:13:04.280Z,24.70
2018-06-30T18:15:07.901Z,24.80
2018-06-30T18:17:11.483Z,24.60
2018-06-30T18:19:14.972Z,24.60
2018-06-30T18:21:18.533Z,24.50
2018-06-30T18:23:22.168Z,24.40
2018-06-30T18:25:25.722Z,24.40
2018-06-30T18:27:29.325Z,24.40
2018-06-30T18:29:32.832Z,24.40
2018-06-30T18:31:36.449Z,24.30
2018-06-30T18:33:40.108Z,24.20
2018-06-30T18:35:43.688Z,24.30
2018-06-30T18:37:47.287Z,24.20
2018-06-30T18:39:50.788Z,24.20
2018-06-30T18:41:54.317Z,24.10
2018-06-30T18:43:57.823Z,24.10
2018-06-30T18:46:01.490Z,24.10
2018-06-30T18:48:05.264Z,24.00
2018-06-30T18:50:08.849Z,23.80
2018-06-30T18:52:12.405Z,23.80
2018-06-30T18:54:15.945Z,23.80
2018-06-30T18:56:19.475Z,23.80
2018-06-30T18:58:23.104Z,23.80
2018-06-30T19:00:26.590Z,23.70
2018-06-30T19:02:30.181Z,23.70
2018-06-30T19:04:33.678Z,23.60
2018-06-30T19:06:37.315Z,23.60
2018-06-30T19:08:40.965Z,23.50
2018-06-30T19:10:44.583Z,23.50
2018-06-30T19:12:48.211Z,23.40
2018-06-30T19:14:51.846Z,23.40
2018-06-30T19:16:55.388Z,23.30
2018-06-30T19:18:59.007Z,23.20
2018-06-30T19:21:02.563Z,23.10
2018-06-30T19:23:06.141Z,23.00
2018-06-30T19:25:09.706Z,23.00
2018-06-30T19:27:13.257Z,23.00
2018-06-30T19:29:16.762Z,22.90
2018-06-30T19:31:20.340Z,22.80
2018-06-30T19:33:30.323Z,22.80
2018-06-30T19:35:33.822Z,22.70
2018-06-30T19:37:37.324Z,22.70
2018-06-30T19:39:41.039Z,22.60
2018-06-30T19:41:44.551Z,22.50
2018-06-30T19:43:48.131Z,22.40
2018-06-30T19:45:51.770Z,22.30
2018-06-30T19:47:55.312Z,22.20
2018-06-30T19:49:58.824Z,22.10
2018-06-30T19:52:02.366Z,22.20
2018-06-30T19:54:06.031Z,22.20
2018-06-30T19:56:09.687Z,22.10
2018-06-30T19:58:13.525Z,22.10
2018-06-30T20:00:17.085Z,22.10
2018-06-30T20:02:20.732Z,22.10
2018-06-30T20:04:24.318Z,22.10
2018-06-30T20:06:27.856Z,22.10
2018-06-30T20:08:31.431Z,22.10
2018-06-30T20:10:35.047Z,22.00
2018-06-30T20:12:38.561Z,22.00
2018-06-30T20:14:42.100Z,22.00
2018-06-30T20:16:45.652Z,22.00
2018-06-30T20:18:49.165Z,22.00
2018-06-30T20:20:52.765Z,21.90
2018-06-30T20:22:56.511Z,21.90
2018-06-30T20:25:00.021Z,21.80
2018-06-30T20:27:03.666Z,21.70
2018-06-30T20:29:07.388Z,21.60
2018-06-30T20:31:10.939Z,21.60
2018-06-30T20:33:14.501Z,21.60
2018-06-30T20:35:18.042Z,21.50
2018-06-30T20:37:21.578Z,21.40
2018-06-30T20:39:25.151Z,21.40
2018-06-30T20:41:28.709Z,21.30
2018-06-30T20:43:32.251Z,21.30
2018-06-30T20:45:35.766Z,21.30
2018-06-30T20:47:39.314Z,21.30
2018-06-30T20:49:42.892Z,21.20
2018-06-30T20:51:46.395Z,21.20
2018-06-30T20:53:49.980Z,21.30
2018-06-30T20:55:53.576Z,21.20
2018-06-30T20:57:57.348Z,21.10
2018-06-30T21:00:00.952Z,21.10
2018-06-30T21:02:04.648Z,20.90
2018-06-30T21:04:08.372Z,20.80
2018-06-30T21:06:12.001Z,20.80
2018-06-30T21:08:15.588Z,20.80
2018-06-30T21:10:19.135Z,20.80
2018-06-30T21:12:22.688Z,20.60
2018-06-30T21:14:26.273Z,20.60
2018-06-30T21:16:29.821Z,20.60
2018-06-30T21:18:33.336Z,20.50
2018-06-30T21:20:36.877Z,20.40
2018-06-30T21:22:40.401Z,20.40
2018-06-30T21:26:47.189Z,20.40
2018-06-30T21:28:50.797Z,20.30
2018-06-30T21:30:54.372Z,20.20
2018-06-30T21:32:57.929Z,20.20
2018-06-30T21:35:01.481Z,20.20
2018-06-30T21:39:10.974Z,20.10
2018-06-30T21:41:14.547Z,20.00
2018-06-30T21:43:18.508Z,19.90
2018-06-30T21:45:22.198Z,19.90
2018-06-30T21:47:25.706Z,19.90
2018-06-30T21:49:29.337Z,19.90
2018-06-30T21:51:32.864Z,19.80
2018-06-30T21:53:36.463Z,19.80
2018-06-30T21:55:39.972Z,19.80
2018-06-30T21:57:43.507Z,19.70
2018-06-30T21:59:47.184Z,19.70
2018-06-30T22:01:50.785Z,19.70
2018-06-30T22:03:55.507Z,19.60
2018-06-30T22:05:59.150Z,19.60
2018-06-30T22:08:02.794Z,19.50
2018-06-30T22:10:07.272Z,19.50
2018-06-30T22:12:10.790Z,19.60
2018-06-30T22:14:14.383Z,19.50
2018-06-30T22:16:17.915Z,19.50
2018-06-30T22:18:21.520Z,19.50
2018-06-30T22:20:25.076Z,19.50
2018-06-30T22:22:28.581Z,19.60
2018-06-30T22:24:32.129Z,19.50
2018-06-30T22:26:35.693Z,19.40
2018-06-30T22:28:39.277Z,19.40
2018-06-30T22:30:42.930Z,19.30
2018-06-30T22:32:46.531Z,19.20
2018-06-30T22:34:50.095Z,19.20
2018-06-30T22:36:53.715Z,19.20
2018-06-30T22:38:58.169Z,19.30
2018-06-30T22:41:01.832Z,19.20
2018-06-30T22:43:05.533Z,19.10
2018-06-30T22:45:09.164Z,19.00
2018-06-30T22:47:12.736Z,19.00
2018-06-30T22:49:16.222Z,19.00
2018-06-30T22:51:19.744Z,19.00
2018-06-30T22:53:23.279Z,18.80
2018-06-30T22:55:26.847Z,18.90
2018-06-30T22:57:30.464Z,18.80
2018-06-30T22:59:34.115Z,18.80
2018-06-30T23:01:37.680Z,18.80
2018-06-30T23:03:41.195Z,18.80
2018-06-30T23:05:44.733Z,18.90
2018-06-30T23:07:48.272Z,18.90
2018-06-30T23:11:55.672Z,18.70
2018-06-30T23:13:59.182Z,18.70
2018-06-30T23:16:02.831Z,18.70
2018-06-30T23:18:06.379Z,18.60
2018-06-30T23:20:10.036Z,18.60
2018-06-30T23:22:13.678Z,18.70
2018-06-30T23:24:17.198Z,18.70
2018-06-30T23:26:20.756Z,18.60
2018-06-30T23:28:24.234Z,18.60
2018-06-30T23:30:28.470Z,18.50
2018-06-30T23:32:31.991Z,18.50
2018-06-30T23:34:35.578Z,18.50
2018-06-30T23:36:39.089Z,18.40
2018-06-30T23:38:42.607Z,18.40
2018-06-30T23:40:46.132Z,18.40
2018-06-30T23:42:49.734Z,18.30
2018-06-30T23:44:53.270Z,18.30
2018-06-30T23:46:56.774Z,18.30
2018-06-30T23:49:00.264Z,18.30
2018-06-30T23:51:03.841Z,18.20
2018-06-30T23:53:07.333Z,18.20
2018-06-30T23:55:10.954Z,18.00
2018-06-30T23:57:14.537Z,18.00
2018-06-30T23:59:18.053Z,18.00
